sensor_id;sensor_type;location;lat;lon;timestamp;P1;durP1;ratioP1;P2;durP2;ratioP2
77022;SDS011;65952;51.440;-2.054;2023-02-28T00:00:03;10.23;;;3.97;;
77022;SDS011;65952;51.440;-2.054;2023-02-28T00:02:35;8.53;;;3.93;;
77022;SDS011;65952;51.440;-2.054;2023-02-28T00:05:01;12.90;;;4.60;;
77022;SDS011;65952;51.440;-2.054;2023-02-28T00:07:28;9.43;;;3.95;;
77022;SDS011;65952;51.440;-2.054;2023-02-28T00:09:55;9.23;;;3.97;;
77022;SDS011;65952;51.440;-2.054;2023-02-28T00:12:20;7.43;;;3.35;;
77022;SDS011;65952;51.440;-2.054;2023-02-28T00:14:46;7.85;;;3.78;;
77022;SDS011;65952;51.440;-2.054;2023-02-28T00:17:11;10.18;;;3.42;;
77022;SDS011;65952;51.440;-2.054;2023-02-28T00:19:37;7.70;;;3.60;;
77022;SDS011;65952;51.440;-2.054;2023-02-28T00:22:02;9.38;;;3.88;;
77022;SDS011;65952;51.440;-2.054;2023-02-28T00:24:27;7.10;;;3.97;;
77022;SDS011;65952;51.440;-2.054;2023-02-28T00:26:53;8.85;;;3.63;;
77022;SDS011;65952;51.440;-2.054;2023-02-28T00:29:18;6.32;;;3.25;;
77022;SDS011;65952;51.440;-2.054;2023-02-28T00:31:43;16.65;;;4.50;;
77022;SDS011;65952;51.440;-2.054;2023-02-28T00:34:09;13.00;;;4.22;;
77022;SDS011;65952;51.440;-2.054;2023-02-28T00:36:34;10.07;;;4.10;;
77022;SDS011;65952;51.440;-2.054;2023-02-28T00:39:00;12.88;;;4.88;;
77022;SDS011;65952;51.440;-2.054;2023-02-28T00:41:25;8.18;;;3.85;;
77022;SDS011;65952;51.440;-2.054;2023-02-28T00:43:50;12.07;;;4.57;;
77022;SDS011;65952;51.440;-2.054;2023-02-28T00:46:16;9.55;;;3.92;;
77022;SDS011;65952;51.440;-2.054;2023-02-28T00:48:41;9.68;;;4.60;;
77022;SDS011;65952;51.440;-2.054;2023-02-28T00:51:07;9.70;;;4.15;;
77022;SDS011;65952;51.440;-2.054;2023-02-28T00:53:32;7.75;;;4.00;;
77022;SDS011;65952;51.440;-2.054;2023-02-28T00:55:58;9.90;;;3.80;;
77022;SDS011;65952;51.440;-2.054;2023-02-28T00:58:23;9.38;;;3.72;;
77022;SDS011;65952;51.440;-2.054;2023-02-28T01:00:50;9.77;;;4.10;;
77022;SDS011;65952;51.440;-2.054;2023-02-28T01:03:17;10.27;;;3.92;;
77022;SDS011;65952;51.440;-2.054;2023-02-28T01:05:43;9.35;;;4.38;;
77022;SDS011;65952;51.440;-2.054;2023-02-28T01:08:09;11.20;;;4.10;;
77022;SDS011;65952;51.440;-2.054;2023-02-28T01:10:34;11.85;;;4.50;;
77022;SDS011;65952;51.440;-2.054;2023-02-28T01:13:01;10.40;;;4.80;;
77022;SDS011;65952;51.440;-2.054;2023-02-28T01:15:26;8.32;;;3.90;;
77022;SDS011;65952;51.440;-2.054;2023-02-28T01:17:52;10.57;;;3.75;;
77022;SDS011;65952;51.440;-2.054;2023-02-28T01:20:17;11.48;;;4.50;;
77022;SDS011;65952;51.440;-2.054;2023-02-28T01:22:43;8.00;;;3.90;;
77022;SDS011;65952;51.440;-2.054;2023-02-28T01:25:08;10.73;;;4.53;;
77022;SDS011;65952;51.440;-2.054;2023-02-28T01:27:34;10.57;;;4.72;;
77022;SDS011;65952;51.440;-2.054;2023-02-28T01:30:00;8.55;;;4.07;;
77022;SDS011;65952;51.440;-2.054;2023-02-28T01:32:26;7.88;;;4.22;;
77022;SDS011;65952;51.440;-2.054;2023-02-28T01:34:51;8.40;;;4.05;;
77022;SDS011;65952;51.440;-2.054;2023-02-28T01:37:17;9.50;;;4.35;;
77022;SDS011;65952;51.440;-2.054;2023-02-28T01:39:42;10.30;;;4.18;;
77022;SDS011;65952;51.440;-2.054;2023-02-28T01:42:08;11.40;;;4.60;;
77022;SDS011;65952;51.440;-2.054;2023-02-28T01:47:22;13.35;;;4.28;;
77022;SDS011;65952;51.440;-2.054;2023-02-28T01:49:52;14.27;;;4.68;;
77022;SDS011;65952;51.440;-2.054;2023-02-28T01:52:17;10.70;;;4.30;;
77022;SDS011;65952;51.440;-2.054;2023-02-28T01:54:47;7.85;;;3.70;;
77022;SDS011;65952;51.440;-2.054;2023-02-28T01:57:18;9.35;;;4.50;;
77022;SDS011;65952;51.440;-2.054;2023-02-28T02:02:24;10.18;;;4.10;;
77022;SDS011;65952;51.440;-2.054;2023-02-28T02:04:52;9.98;;;4.20;;
77022;SDS011;65952;51.440;-2.054;2023-02-28T02:07:18;11.60;;;4.45;;
77022;SDS011;65952;51.440;-2.054;2023-02-28T02:09:44;8.98;;;3.88;;
77022;SDS011;65952;51.440;-2.054;2023-02-28T02:12:32;9.40;;;4.18;;
77022;SDS011;65952;51.440;-2.054;2023-02-28T02:15:00;7.38;;;3.92;;
77022;SDS011;65952;51.440;-2.054;2023-02-28T02:17:38;8.52;;;4.15;;
77022;SDS011;65952;51.440;-2.054;2023-02-28T02:20:16;9.55;;;4.65;;
77022;SDS011;65952;51.440;-2.054;2023-02-28T02:26:44;7.70;;;3.85;;
77022;SDS011;65952;51.440;-2.054;2023-02-28T02:28:54;8.48;;;3.90;;
77022;SDS011;65952;51.440;-2.054;2023-02-28T02:37:08;9.20;;;3.88;;
77022;SDS011;65952;51.440;-2.054;2023-02-28T02:42:09;10.10;;;4.25;;
77022;SDS011;65952;51.440;-2.054;2023-02-28T02:44:51;9.50;;;4.40;;
77022;SDS011;65952;51.440;-2.054;2023-02-28T02:47:24;12.55;;;4.45;;
77022;SDS011;65952;51.440;-2.054;2023-02-28T02:49:55;9.70;;;4.40;;
77022;SDS011;65952;51.440;-2.054;2023-02-28T02:52:24;10.50;;;4.60;;
77022;SDS011;65952;51.440;-2.054;2023-02-28T02:54:57;9.85;;;4.10;;
77022;SDS011;65952;51.440;-2.054;2023-02-28T02:57:27;11.32;;;4.53;;
77022;SDS011;65952;51.440;-2.054;2023-02-28T02:59:58;12.05;;;4.10;;
77022;SDS011;65952;51.440;-2.054;2023-02-28T03:02:26;16.38;;;5.10;;
77022;SDS011;65952;51.440;-2.054;2023-02-28T03:04:59;8.32;;;4.65;;
77022;SDS011;65952;51.440;-2.054;2023-02-28T03:07:27;13.48;;;4.60;;
77022;SDS011;65952;51.440;-2.054;2023-02-28T03:09:54;10.40;;;4.28;;
77022;SDS011;65952;51.440;-2.054;2023-02-28T03:12:22;10.15;;;4.20;;
77022;SDS011;65952;51.440;-2.054;2023-02-28T03:19:51;10.88;;;4.05;;
77022;SDS011;65952;51.440;-2.054;2023-02-28T03:27:37;8.30;;;3.75;;
77022;SDS011;65952;51.440;-2.054;2023-02-28T03:32:45;9.32;;;4.38;;
77022;SDS011;65952;51.440;-2.054;2023-02-28T03:35:34;10.40;;;4.28;;
77022;SDS011;65952;51.440;-2.054;2023-02-28T03:38:28;7.07;;;3.92;;
77022;SDS011;65952;51.440;-2.054;2023-02-28T03:41:01;9.77;;;3.50;;
77022;SDS011;65952;51.440;-2.054;2023-02-28T03:43:34;8.55;;;3.63;;
77022;SDS011;65952;51.440;-2.054;2023-02-28T03:46:05;9.75;;;4.25;;
77022;SDS011;65952;51.440;-2.054;2023-02-28T03:48:37;9.60;;;3.92;;
77022;SDS011;65952;51.440;-2.054;2023-02-28T03:51:06;9.82;;;3.53;;
77022;SDS011;65952;51.440;-2.054;2023-02-28T03:53:36;11.75;;;3.63;;
77022;SDS011;65952;51.440;-2.054;2023-02-28T03:56:07;10.45;;;4.30;;
77022;SDS011;65952;51.440;-2.054;2023-02-28T04:01:14;10.23;;;3.30;;
77022;SDS011;65952;51.440;-2.054;2023-02-28T04:03:55;7.70;;;3.40;;
77022;SDS011;65952;51.440;-2.054;2023-02-28T04:06:21;10.20;;;3.55;;
77022;SDS011;65952;51.440;-2.054;2023-02-28T04:08:48;10.05;;;3.80;;
77022;SDS011;65952;51.440;-2.054;2023-02-28T04:11:33;6.88;;;3.55;;
77022;SDS011;65952;51.440;-2.054;2023-02-28T04:14:01;7.38;;;3.60;;
77022;SDS011;65952;51.440;-2.054;2023-02-28T04:16:34;8.05;;;4.03;;
77022;SDS011;65952;51.440;-2.054;2023-02-28T04:19:02;8.27;;;4.65;;
77022;SDS011;65952;51.440;-2.054;2023-02-28T04:21:30;9.18;;;3.90;;
77022;SDS011;65952;51.440;-2.054;2023-02-28T04:24:04;8.75;;;4.07;;
77022;SDS011;65952;51.440;-2.054;2023-02-28T04:26:30;8.65;;;3.85;;
77022;SDS011;65952;51.440;-2.054;2023-02-28T04:28:57;8.27;;;3.67;;
77022;SDS011;65952;51.440;-2.054;2023-02-28T04:31:23;6.18;;;3.60;;
77022;SDS011;65952;51.440;-2.054;2023-02-28T04:33:49;9.60;;;3.88;;
77022;SDS011;65952;51.440;-2.054;2023-02-28T04:36:14;6.70;;;3.55;;
77022;SDS011;65952;51.440;-2.054;2023-02-28T04:38:42;10.05;;;4.15;;
77022;SDS011;65952;51.440;-2.054;2023-02-28T04:41:09;7.88;;;3.67;;
77022;SDS011;65952;51.440;-2.054;2023-02-28T04:43:34;7.72;;;3.40;;
77022;SDS011;65952;51.440;-2.054;2023-02-28T04:46:01;8.30;;;4.00;;
77022;SDS011;65952;51.440;-2.054;2023-02-28T04:48:28;8.70;;;3.70;;
77022;SDS011;65952;51.440;-2.054;2023-02-28T04:50:55;8.23;;;3.45;;
77022;SDS011;65952;51.440;-2.054;2023-02-28T04:53:20;11.30;;;3.63;;
77022;SDS011;65952;51.440;-2.054;2023-02-28T04:55:46;8.75;;;3.97;;
77022;SDS011;65952;51.440;-2.054;2023-02-28T04:58:14;9.50;;;3.97;;
77022;SDS011;65952;51.440;-2.054;2023-02-28T05:00:40;10.10;;;3.50;;
77022;SDS011;65952;51.440;-2.054;2023-02-28T05:03:05;7.97;;;3.83;;
77022;SDS011;65952;51.440;-2.054;2023-02-28T05:05:31;9.50;;;3.65;;
77022;SDS011;65952;51.440;-2.054;2023-02-28T05:07:56;8.07;;;3.67;;
77022;SDS011;65952;51.440;-2.054;2023-02-28T05:10:22;7.00;;;4.10;;
77022;SDS011;65952;51.440;-2.054;2023-02-28T05:12:48;9.73;;;3.60;;
77022;SDS011;65952;51.440;-2.054;2023-02-28T05:15:14;14.73;;;3.83;;
77022;SDS011;65952;51.440;-2.054;2023-02-28T05:17:40;8.55;;;3.28;;
77022;SDS011;65952;51.440;-2.054;2023-02-28T05:20:06;10.77;;;3.85;;
77022;SDS011;65952;51.440;-2.054;2023-02-28T05:22:33;11.52;;;4.18;;
77022;SDS011;65952;51.440;-2.054;2023-02-28T05:24:59;10.70;;;4.03;;
77022;SDS011;65952;51.440;-2.054;2023-02-28T05:27:24;7.30;;;4.10;;
77022;SDS011;65952;51.440;-2.054;2023-02-28T05:29:50;10.85;;;4.72;;
77022;SDS011;65952;51.440;-2.054;2023-02-28T05:32:15;9.10;;;4.75;;
77022;SDS011;65952;51.440;-2.054;2023-02-28T05:34:41;8.43;;;4.85;;
77022;SDS011;65952;51.440;-2.054;2023-02-28T05:37:08;14.60;;;5.72;;
77022;SDS011;65952;51.440;-2.054;2023-02-28T05:39:37;10.48;;;5.55;;
77022;SDS011;65952;51.440;-2.054;2023-02-28T05:42:03;11.10;;;5.60;;
77022;SDS011;65952;51.440;-2.054;2023-02-28T05:44:29;11.73;;;5.55;;
77022;SDS011;65952;51.440;-2.054;2023-02-28T05:46:54;9.73;;;4.97;;
77022;SDS011;65952;51.440;-2.054;2023-02-28T05:49:20;11.00;;;4.95;;
77022;SDS011;65952;51.440;-2.054;2023-02-28T05:51:45;12.95;;;5.35;;
77022;SDS011;65952;51.440;-2.054;2023-02-28T05:54:10;11.23;;;5.63;;
77022;SDS011;65952;51.440;-2.054;2023-02-28T05:56:36;10.40;;;5.40;;
77022;SDS011;65952;51.440;-2.054;2023-02-28T05:59:04;9.45;;;4.70;;
77022;SDS011;65952;51.440;-2.054;2023-02-28T06:04:00;11.73;;;4.95;;
77022;SDS011;65952;51.440;-2.054;2023-02-28T06:06:27;9.30;;;5.25;;
77022;SDS011;65952;51.440;-2.054;2023-02-28T06:08:54;15.73;;;5.22;;
77022;SDS011;65952;51.440;-2.054;2023-02-28T06:11:19;10.52;;;4.97;;
77022;SDS011;65952;51.440;-2.054;2023-02-28T06:13:45;11.52;;;5.53;;
77022;SDS011;65952;51.440;-2.054;2023-02-28T06:16:11;12.05;;;5.15;;
77022;SDS011;65952;51.440;-2.054;2023-02-28T06:18:37;11.45;;;5.30;;
77022;SDS011;65952;51.440;-2.054;2023-02-28T06:21:02;9.13;;;4.63;;
77022;SDS011;65952;51.440;-2.054;2023-02-28T06:23:28;14.82;;;5.93;;
77022;SDS011;65952;51.440;-2.054;2023-02-28T06:25:53;15.40;;;6.68;;
77022;SDS011;65952;51.440;-2.054;2023-02-28T06:28:22;11.40;;;5.30;;
77022;SDS011;65952;51.440;-2.054;2023-02-28T06:30:48;16.00;;;6.45;;
77022;SDS011;65952;51.440;-2.054;2023-02-28T06:33:13;12.73;;;5.90;;
77022;SDS011;65952;51.440;-2.054;2023-02-28T06:35:38;12.10;;;5.90;;
77022;SDS011;65952;51.440;-2.054;2023-02-28T06:38:04;11.98;;;5.35;;
77022;SDS011;65952;51.440;-2.054;2023-02-28T06:40:29;12.55;;;6.05;;
77022;SDS011;65952;51.440;-2.054;2023-02-28T06:42:58;11.27;;;5.30;;
77022;SDS011;65952;51.440;-2.054;2023-02-28T06:45:24;12.40;;;5.72;;
77022;SDS011;65952;51.440;-2.054;2023-02-28T06:47:51;15.45;;;5.43;;
77022;SDS011;65952;51.440;-2.054;2023-02-28T06:50:17;9.32;;;4.80;;
77022;SDS011;65952;51.440;-2.054;2023-02-28T06:52:44;10.23;;;5.35;;
77022;SDS011;65952;51.440;-2.054;2023-02-28T06:55:09;11.38;;;5.05;;
77022;SDS011;65952;51.440;-2.054;2023-02-28T06:57:35;9.35;;;3.83;;
77022;SDS011;65952;51.440;-2.054;2023-02-28T07:00:04;10.32;;;4.70;;
77022;SDS011;65952;51.440;-2.054;2023-02-28T07:02:32;11.85;;;4.95;;
77022;SDS011;65952;51.440;-2.054;2023-02-28T07:04:58;9.45;;;4.30;;
77022;SDS011;65952;51.440;-2.054;2023-02-28T07:07:23;8.60;;;4.50;;
77022;SDS011;65952;51.440;-2.054;2023-02-28T07:09:49;8.73;;;4.10;;
77022;SDS011;65952;51.440;-2.054;2023-02-28T07:12:14;9.65;;;4.55;;
77022;SDS011;65952;51.440;-2.054;2023-02-28T07:14:40;10.18;;;4.45;;
77022;SDS011;65952;51.440;-2.054;2023-02-28T07:17:09;9.32;;;4.10;;
77022;SDS011;65952;51.440;-2.054;2023-02-28T07:19:37;7.53;;;3.80;;
77022;SDS011;65952;51.440;-2.054;2023-02-28T07:22:03;8.50;;;3.78;;
77022;SDS011;65952;51.440;-2.054;2023-02-28T07:24:28;7.78;;;4.32;;
77022;SDS011;65952;51.440;-2.054;2023-02-28T07:26:54;8.23;;;4.40;;
77022;SDS011;65952;51.440;-2.054;2023-02-28T07:29:20;7.60;;;3.50;;
77022;SDS011;65952;51.440;-2.054;2023-02-28T07:31:45;7.30;;;3.70;;
77022;SDS011;65952;51.440;-2.054;2023-02-28T07:34:11;7.75;;;3.50;;
77022;SDS011;65952;51.440;-2.054;2023-02-28T07:36:37;6.63;;;2.92;;
77022;SDS011;65952;51.440;-2.054;2023-02-28T07:39:03;7.10;;;3.88;;
77022;SDS011;65952;51.440;-2.054;2023-02-28T07:41:29;7.07;;;3.50;;
77022;SDS011;65952;51.440;-2.054;2023-02-28T07:43:58;6.75;;;2.97;;
77022;SDS011;65952;51.440;-2.054;2023-02-28T07:46:24;6.30;;;2.90;;
77022;SDS011;65952;51.440;-2.054;2023-02-28T07:48:51;6.10;;;2.88;;
77022;SDS011;65952;51.440;-2.054;2023-02-28T07:51:17;5.82;;;2.40;;
77022;SDS011;65952;51.440;-2.054;2023-02-28T07:53:43;5.10;;;2.58;;
77022;SDS011;65952;51.440;-2.054;2023-02-28T07:56:09;5.10;;;2.30;;
77022;SDS011;65952;51.440;-2.054;2023-02-28T07:58:35;4.10;;;1.95;;
77022;SDS011;65952;51.440;-2.054;2023-02-28T08:01:04;5.20;;;2.40;;
77022;SDS011;65952;51.440;-2.054;2023-02-28T08:06:00;5.07;;;2.40;;
77022;SDS011;65952;51.440;-2.054;2023-02-28T08:08:27;5.55;;;2.10;;
77022;SDS011;65952;51.440;-2.054;2023-02-28T08:10:57;4.88;;;2.10;;
77022;SDS011;65952;51.440;-2.054;2023-02-28T08:13:24;4.20;;;1.85;;
77022;SDS011;65952;51.440;-2.054;2023-02-28T08:15:50;4.72;;;2.00;;
77022;SDS011;65952;51.440;-2.054;2023-02-28T08:18:15;3.47;;;1.88;;
77022;SDS011;65952;51.440;-2.054;2023-02-28T08:20:41;4.75;;;2.42;;
77022;SDS011;65952;51.440;-2.054;2023-02-28T08:23:06;3.47;;;1.90;;
77022;SDS011;65952;51.440;-2.054;2023-02-28T08:25:32;5.32;;;2.03;;
77022;SDS011;65952;51.440;-2.054;2023-02-28T08:27:57;4.43;;;2.10;;
77022;SDS011;65952;51.440;-2.054;2023-02-28T08:30:22;3.70;;;1.75;;
77022;SDS011;65952;51.440;-2.054;2023-02-28T08:32:48;3.25;;;1.70;;
77022;SDS011;65952;51.440;-2.054;2023-02-28T08:35:13;3.63;;;1.80;;
77022;SDS011;65952;51.440;-2.054;2023-02-28T08:37:38;4.65;;;2.00;;
77022;SDS011;65952;51.440;-2.054;2023-02-28T08:40:04;3.60;;;1.80;;
77022;SDS011;65952;51.440;-2.054;2023-02-28T08:42:30;3.70;;;1.95;;
77022;SDS011;65952;51.440;-2.054;2023-02-28T08:44:57;4.97;;;2.05;;
77022;SDS011;65952;51.440;-2.054;2023-02-28T08:47:22;4.30;;;2.05;;
77022;SDS011;65952;51.440;-2.054;2023-02-28T08:49:48;4.88;;;2.42;;
77022;SDS011;65952;51.440;-2.054;2023-02-28T08:52:13;6.20;;;1.98;;
77022;SDS011;65952;51.440;-2.054;2023-02-28T08:54:39;5.20;;;1.98;;
77022;SDS011;65952;51.440;-2.054;2023-02-28T08:57:04;3.17;;;1.75;;
77022;SDS011;65952;51.440;-2.054;2023-02-28T08:59:29;3.38;;;1.67;;
77022;SDS011;65952;51.440;-2.054;2023-02-28T09:01:55;5.43;;;2.03;;
77022;SDS011;65952;51.440;-2.054;2023-02-28T09:04:20;6.35;;;2.60;;
77022;SDS011;65952;51.440;-2.054;2023-02-28T09:06:46;4.03;;;1.95;;
77022;SDS011;65952;51.440;-2.054;2023-02-28T09:09:13;3.53;;;1.70;;
77022;SDS011;65952;51.440;-2.054;2023-02-28T09:11:39;4.93;;;2.20;;
77022;SDS011;65952;51.440;-2.054;2023-02-28T09:14:04;4.95;;;1.75;;
77022;SDS011;65952;51.440;-2.054;2023-02-28T09:16:30;4.03;;;2.15;;
77022;SDS011;65952;51.440;-2.054;2023-02-28T09:18:56;3.67;;;1.90;;
77022;SDS011;65952;51.440;-2.054;2023-02-28T09:21:22;4.03;;;1.80;;
77022;SDS011;65952;51.440;-2.054;2023-02-28T09:23:48;3.63;;;1.77;;
77022;SDS011;65952;51.440;-2.054;2023-02-28T09:28:40;3.70;;;1.75;;
77022;SDS011;65952;51.440;-2.054;2023-02-28T09:31:05;4.60;;;1.80;;
77022;SDS011;65952;51.440;-2.054;2023-02-28T09:33:31;5.40;;;2.10;;
77022;SDS011;65952;51.440;-2.054;2023-02-28T09:35:57;4.47;;;2.13;;
77022;SDS011;65952;51.440;-2.054;2023-02-28T09:38:25;5.78;;;2.33;;
77022;SDS011;65952;51.440;-2.054;2023-02-28T09:40:52;4.20;;;2.13;;
77022;SDS011;65952;51.440;-2.054;2023-02-28T09:43:21;4.40;;;2.28;;
77022;SDS011;65952;51.440;-2.054;2023-02-28T09:45:50;7.22;;;2.28;;
77022;SDS011;65952;51.440;-2.054;2023-02-28T09:48:25;6.35;;;2.85;;
77022;SDS011;65952;51.440;-2.054;2023-02-28T09:51:02;6.45;;;2.95;;
77022;SDS011;65952;51.440;-2.054;2023-02-28T09:53:33;5.93;;;3.00;;
77022;SDS011;65952;51.440;-2.054;2023-02-28T09:56:37;6.85;;;3.20;;
77022;SDS011;65952;51.440;-2.054;2023-02-28T10:01:43;4.90;;;2.20;;
77022;SDS011;65952;51.440;-2.054;2023-02-28T10:06:50;4.80;;;2.25;;
77022;SDS011;65952;51.440;-2.054;2023-02-28T10:09:18;5.10;;;2.15;;
77022;SDS011;65952;51.440;-2.054;2023-02-28T10:11:50;3.08;;;1.83;;
77022;SDS011;65952;51.440;-2.054;2023-02-28T10:14:19;4.22;;;1.90;;
77022;SDS011;65952;51.440;-2.054;2023-02-28T10:19:47;5.68;;;1.63;;
77022;SDS011;65952;51.440;-2.054;2023-02-28T10:22:18;3.03;;;1.58;;
77022;SDS011;65952;51.440;-2.054;2023-02-28T10:24:46;3.90;;;1.83;;
77022;SDS011;65952;51.440;-2.054;2023-02-28T10:27:15;3.53;;;1.73;;
77022;SDS011;65952;51.440;-2.054;2023-02-28T10:29:47;5.13;;;1.75;;
77022;SDS011;65952;51.440;-2.054;2023-02-28T10:32:15;4.07;;;1.85;;
77022;SDS011;65952;51.440;-2.054;2023-02-28T10:34:43;4.47;;;2.30;;
77022;SDS011;65952;51.440;-2.054;2023-02-28T10:37:09;4.75;;;1.88;;
77022;SDS011;65952;51.440;-2.054;2023-02-28T10:39:37;3.25;;;1.67;;
77022;SDS011;65952;51.440;-2.054;2023-02-28T10:42:05;5.07;;;1.70;;
77022;SDS011;65952;51.440;-2.054;2023-02-28T10:44:44;5.13;;;2.38;;
77022;SDS011;65952;51.440;-2.054;2023-02-28T10:47:16;4.70;;;2.30;;
77022;SDS011;65952;51.440;-2.054;2023-02-28T10:49:48;5.28;;;2.00;;
77022;SDS011;65952;51.440;-2.054;2023-02-28T10:52:14;5.60;;;2.30;;
77022;SDS011;65952;51.440;-2.054;2023-02-28T10:55:15;6.13;;;2.47;;
77022;SDS011;65952;51.440;-2.054;2023-02-28T10:57:46;3.30;;;1.80;;
77022;SDS011;65952;51.440;-2.054;2023-02-28T11:00:13;7.22;;;2.42;;
77022;SDS011;65952;51.440;-2.054;2023-02-28T11:02:42;5.22;;;2.28;;
77022;SDS011;65952;51.440;-2.054;2023-02-28T11:05:24;4.57;;;2.40;;
77022;SDS011;65952;51.440;-2.054;2023-02-28T11:07:53;4.53;;;2.50;;
77022;SDS011;65952;51.440;-2.054;2023-02-28T11:10:20;7.90;;;2.50;;
77022;SDS011;65952;51.440;-2.054;2023-02-28T11:12:48;5.18;;;2.22;;
77022;SDS011;65952;51.440;-2.054;2023-02-28T11:17:50;4.63;;;2.40;;
77022;SDS011;65952;51.440;-2.054;2023-02-28T11:20:24;6.25;;;2.90;;
77022;SDS011;65952;51.440;-2.054;2023-02-28T11:22:51;5.57;;;2.80;;
77022;SDS011;65952;51.440;-2.054;2023-02-28T11:25:38;6.25;;;3.10;;
77022;SDS011;65952;51.440;-2.054;2023-02-28T11:28:23;8.02;;;2.80;;
77022;SDS011;65952;51.440;-2.054;2023-02-28T11:31:02;6.05;;;2.70;;
77022;SDS011;65952;51.440;-2.054;2023-02-28T11:33:30;8.63;;;4.05;;
77022;SDS011;65952;51.440;-2.054;2023-02-28T11:36:09;7.55;;;3.53;;
77022;SDS011;65952;51.440;-2.054;2023-02-28T11:38:53;7.38;;;3.47;;
77022;SDS011;65952;51.440;-2.054;2023-02-28T11:41:33;8.07;;;3.63;;
77022;SDS011;65952;51.440;-2.054;2023-02-28T11:46:44;7.57;;;3.55;;
77022;SDS011;65952;51.440;-2.054;2023-02-28T11:52:06;7.28;;;3.55;;
77022;SDS011;65952;51.440;-2.054;2023-02-28T11:57:35;8.63;;;3.95;;
77022;SDS011;65952;51.440;-2.054;2023-02-28T12:00:08;9.13;;;4.80;;
77022;SDS011;65952;51.440;-2.054;2023-02-28T12:11:30;9.18;;;3.90;;
77022;SDS011;65952;51.440;-2.054;2023-02-28T12:16:58;9.10;;;3.40;;
77022;SDS011;65952;51.440;-2.054;2023-02-28T12:27:38;9.52;;;3.80;;
77022;SDS011;65952;51.440;-2.054;2023-02-28T12:32:51;9.02;;;4.32;;
77022;SDS011;65952;51.440;-2.054;2023-02-28T12:35:23;9.02;;;4.20;;
77022;SDS011;65952;51.440;-2.054;2023-02-28T12:37:57;9.00;;;4.10;;
77022;SDS011;65952;51.440;-2.054;2023-02-28T12:40:33;10.77;;;4.90;;
77022;SDS011;65952;51.440;-2.054;2023-02-28T12:43:11;11.32;;;4.20;;
77022;SDS011;65952;51.440;-2.054;2023-02-28T12:45:46;7.32;;;3.97;;
77022;SDS011;65952;51.440;-2.054;2023-02-28T12:48:22;8.07;;;3.85;;
77022;SDS011;65952;51.440;-2.054;2023-02-28T12:50:52;9.10;;;4.00;;
77022;SDS011;65952;51.440;-2.054;2023-02-28T12:54:02;9.32;;;3.85;;
77022;SDS011;65952;51.440;-2.054;2023-02-28T12:56:13;7.65;;;3.83;;
77022;SDS011;65952;51.440;-2.054;2023-02-28T12:58:54;9.02;;;4.30;;
77022;SDS011;65952;51.440;-2.054;2023-02-28T13:09:10;9.77;;;4.30;;
77022;SDS011;65952;51.440;-2.054;2023-02-28T13:11:40;9.40;;;4.78;;
77022;SDS011;65952;51.440;-2.054;2023-02-28T13:14:13;8.57;;;4.40;;
77022;SDS011;65952;51.440;-2.054;2023-02-28T13:16:49;8.20;;;4.43;;
77022;SDS011;65952;51.440;-2.054;2023-02-28T13:20:16;8.73;;;4.53;;
77022;SDS011;65952;51.440;-2.054;2023-02-28T13:22:43;10.85;;;5.13;;
77022;SDS011;65952;51.440;-2.054;2023-02-28T13:27:48;11.48;;;5.03;;
77022;SDS011;65952;51.440;-2.054;2023-02-28T13:36:28;10.48;;;4.13;;
77022;SDS011;65952;51.440;-2.054;2023-02-28T13:38:54;9.52;;;3.97;;
77022;SDS011;65952;51.440;-2.054;2023-02-28T13:52:10;6.53;;;3.20;;
77022;SDS011;65952;51.440;-2.054;2023-02-28T13:54:52;8.07;;;3.70;;
77022;SDS011;65952;51.440;-2.054;2023-02-28T14:05:35;6.90;;;3.50;;
77022;SDS011;65952;51.440;-2.054;2023-02-28T14:10:43;5.93;;;2.88;;
77022;SDS011;65952;51.440;-2.054;2023-02-28T14:16:54;7.45;;;3.35;;
77022;SDS011;65952;51.440;-2.054;2023-02-28T14:21:34;7.82;;;3.55;;
77022;SDS011;65952;51.440;-2.054;2023-02-28T14:24:13;6.78;;;3.25;;
77022;SDS011;65952;51.440;-2.054;2023-02-28T14:32:27;6.93;;;3.20;;
77022;SDS011;65952;51.440;-2.054;2023-02-28T14:37:51;5.43;;;3.00;;
77022;SDS011;65952;51.440;-2.054;2023-02-28T14:40:29;5.88;;;3.20;;
77022;SDS011;65952;51.440;-2.054;2023-02-28T14:43:02;5.82;;;2.88;;
77022;SDS011;65952;51.440;-2.054;2023-02-28T14:45:29;8.00;;;3.50;;
77022;SDS011;65952;51.440;-2.054;2023-02-28T14:47:57;8.52;;;3.50;;
77022;SDS011;65952;51.440;-2.054;2023-02-28T14:50:26;5.60;;;3.28;;
77022;SDS011;65952;51.440;-2.054;2023-02-28T14:52:55;7.15;;;3.67;;
77022;SDS011;65952;51.440;-2.054;2023-02-28T14:55:31;7.00;;;3.63;;
77022;SDS011;65952;51.440;-2.054;2023-02-28T14:58:00;5.93;;;3.03;;
77022;SDS011;65952;51.440;-2.054;2023-02-28T15:00:35;5.30;;;3.58;;
77022;SDS011;65952;51.440;-2.054;2023-02-28T15:03:19;5.55;;;2.95;;
77022;SDS011;65952;51.440;-2.054;2023-02-28T15:05:56;4.90;;;2.33;;
77022;SDS011;65952;51.440;-2.054;2023-02-28T15:08:24;4.95;;;2.78;;
77022;SDS011;65952;51.440;-2.054;2023-02-28T15:13:19;5.63;;;2.50;;
77022;SDS011;65952;51.440;-2.054;2023-02-28T15:21:07;4.70;;;2.58;;
77022;SDS011;65952;51.440;-2.054;2023-02-28T15:23:37;5.22;;;2.30;;
77022;SDS011;65952;51.440;-2.054;2023-02-28T15:26:05;5.30;;;2.05;;
77022;SDS011;65952;51.440;-2.054;2023-02-28T15:28:31;4.90;;;2.20;;
77022;SDS011;65952;51.440;-2.054;2023-02-28T15:30:58;5.63;;;2.53;;
77022;SDS011;65952;51.440;-2.054;2023-02-28T15:33:29;3.90;;;2.25;;
77022;SDS011;65952;51.440;-2.054;2023-02-28T15:36:03;4.65;;;2.28;;
77022;SDS011;65952;51.440;-2.054;2023-02-28T15:38:45;4.13;;;2.13;;
77022;SDS011;65952;51.440;-2.054;2023-02-28T15:41:26;3.75;;;2.20;;
77022;SDS011;65952;51.440;-2.054;2023-02-28T15:49:26;4.30;;;2.22;;
77022;SDS011;65952;51.440;-2.054;2023-02-28T15:51:53;5.53;;;2.45;;
77022;SDS011;65952;51.440;-2.054;2023-02-28T15:54:31;5.50;;;2.42;;
77022;SDS011;65952;51.440;-2.054;2023-02-28T15:57:03;6.28;;;3.05;;
77022;SDS011;65952;51.440;-2.054;2023-02-28T15:59:33;5.15;;;2.83;;
77022;SDS011;65952;51.440;-2.054;2023-02-28T16:04:35;4.53;;;2.35;;
77022;SDS011;65952;51.440;-2.054;2023-02-28T16:07:02;6.55;;;2.90;;
77022;SDS011;65952;51.440;-2.054;2023-02-28T16:09:29;8.57;;;3.13;;
77022;SDS011;65952;51.440;-2.054;2023-02-28T16:11:55;6.20;;;2.85;;
77022;SDS011;65952;51.440;-2.054;2023-02-28T16:14:26;7.75;;;3.17;;
77022;SDS011;65952;51.440;-2.054;2023-02-28T16:16:56;5.82;;;2.90;;
77022;SDS011;65952;51.440;-2.054;2023-02-28T16:19:31;6.50;;;3.10;;
77022;SDS011;65952;51.440;-2.054;2023-02-28T16:21:57;5.72;;;3.10;;
77022;SDS011;65952;51.440;-2.054;2023-02-28T16:24:23;7.00;;;3.63;;
77022;SDS011;65952;51.440;-2.054;2023-02-28T16:26:49;7.15;;;3.15;;
77022;SDS011;65952;51.440;-2.054;2023-02-28T16:29:20;5.10;;;2.88;;
77022;SDS011;65952;51.440;-2.054;2023-02-28T16:31:49;6.05;;;3.13;;
77022;SDS011;65952;51.440;-2.054;2023-02-28T16:34:15;5.32;;;2.72;;
77022;SDS011;65952;51.440;-2.054;2023-02-28T16:36:41;6.10;;;2.95;;
77022;SDS011;65952;51.440;-2.054;2023-02-28T16:39:06;6.63;;;3.25;;
77022;SDS011;65952;51.440;-2.054;2023-02-28T16:41:31;5.22;;;2.80;;
77022;SDS011;65952;51.440;-2.054;2023-02-28T16:43:59;5.43;;;2.55;;
77022;SDS011;65952;51.440;-2.054;2023-02-28T16:46:33;5.13;;;2.90;;
77022;SDS011;65952;51.440;-2.054;2023-02-28T16:49:00;6.00;;;3.28;;
77022;SDS011;65952;51.440;-2.054;2023-02-28T16:51:25;6.25;;;3.20;;
77022;SDS011;65952;51.440;-2.054;2023-02-28T16:53:51;7.03;;;3.70;;
77022;SDS011;65952;51.440;-2.054;2023-02-28T16:56:18;6.57;;;3.63;;
77022;SDS011;65952;51.440;-2.054;2023-02-28T16:58:45;6.70;;;3.45;;
77022;SDS011;65952;51.440;-2.054;2023-02-28T17:01:12;7.05;;;3.00;;
77022;SDS011;65952;51.440;-2.054;2023-02-28T17:03:38;5.18;;;3.08;;
77022;SDS011;65952;51.440;-2.054;2023-02-28T17:06:05;6.75;;;3.03;;
77022;SDS011;65952;51.440;-2.054;2023-02-28T17:08:34;7.80;;;3.45;;
77022;SDS011;65952;51.440;-2.054;2023-02-28T17:10:59;6.57;;;3.08;;